createdAt,value
2017-02-14T00:00:21.235Z,51.94
2017-02-14T00:00:42.979Z,51.86
2017-02-14T00:01:04.678Z,51.98
2017-02-14T00:01:31.153Z,52.08
2017-02-14T00:01:52.855Z,52.08
2017-02-14T00:02:14.566Z,52.21
2017-02-14T00:02:41.055Z,52.20
2017-02-14T00:03:02.777Z,52.22
2017-02-14T00:03:29.256Z,52.13
2017-02-14T00:03:50.965Z,52.30
2017-02-14T00:04:17.447Z,52.25
2017-02-14T00:04:39.157Z,52.46
2017-02-14T00:05:05.644Z,52.56
2017-02-14T00:05:27.355Z,52.41
2017-02-14T00:05:53.833Z,52.37
2017-02-14T00:06:15.537Z,52.51
2017-02-14T00:06:37.254Z,52.36
2017-02-14T00:06:58.962Z,52.37
2017-02-14T00:07:25.442Z,52.40
2017-02-14T00:07:47.147Z,52.49
2017-02-14T00:08:13.635Z,52.46
2017-02-14T00:08:35.343Z,52.42
2017-02-14T00:09:01.822Z,52.49
2017-02-14T00:09:23.634Z,52.52
2017-02-14T00:09:50.107Z,52.57
2017-02-14T00:10:11.922Z,52.52
2017-02-14T00:10:33.638Z,52.50
2017-02-14T00:11:00.121Z,52.60
2017-02-14T00:11:21.823Z,52.54
2017-02-14T00:11:43.541Z,52.78
2017-02-14T00:12:14.811Z,52.82
2017-02-14T00:12:36.540Z,52.92
2017-02-14T00:13:03.020Z,52.94
2017-02-14T00:13:24.725Z,52.86
2017-02-14T00:13:53.839Z,52.79
2017-02-14T00:14:15.555Z,52.84
2017-02-14T00:14:39.669Z,52.83
2017-02-14T00:15:01.363Z,53.01
2017-02-14T00:15:27.858Z,52.85
2017-02-14T00:15:49.653Z,52.76
2017-02-14T00:16:11.501Z,52.72
2017-02-14T00:16:37.999Z,52.93
2017-02-14T00:16:59.810Z,53.04
2017-02-14T00:17:21.526Z,53.01
2017-02-14T00:17:48.142Z,53.00
2017-02-14T00:18:09.852Z,53.10
2017-02-14T00:18:41.110Z,53.07
2017-02-14T00:19:02.813Z,53.07
2017-02-14T00:19:34.073Z,53.37
2017-02-14T00:19:55.779Z,53.21
2017-02-14T00:20:22.260Z,53.05
2017-02-14T00:20:43.974Z,53.10
2017-02-14T00:21:15.238Z,53.18
2017-02-14T00:21:36.982Z,52.99
2017-02-14T00:21:58.781Z,53.00
2017-02-14T00:22:30.032Z,52.86
2017-02-14T00:22:51.740Z,53.05
2017-02-14T00:23:13.548Z,53.12
2017-02-14T00:23:35.260Z,53.19
2017-02-14T00:23:56.962Z,53.12
2017-02-14T00:24:28.220Z,53.04
2017-02-14T00:24:50.013Z,53.13
2017-02-14T00:25:21.362Z,53.34
2017-02-14T00:25:43.062Z,53.49
2017-02-14T00:26:04.767Z,53.24
2017-02-14T00:26:31.244Z,53.42
2017-02-14T00:26:52.967Z,53.42
2017-02-14T00:27:56.059Z,53.75
2017-02-14T00:28:17.881Z,53.72
2017-02-14T00:28:44.361Z,53.76
2017-02-14T00:29:06.072Z,53.71
2017-02-14T00:29:37.318Z,53.66
2017-02-14T00:29:59.036Z,53.84
2017-02-14T00:30:20.838Z,53.79
2017-02-14T00:30:47.316Z,53.57
2017-02-14T00:31:09.112Z,53.49
2017-02-14T00:31:35.592Z,53.54
2017-02-14T00:31:57.420Z,53.52
2017-02-14T00:32:19.261Z,53.36
2017-02-14T00:33:22.326Z,53.62
2017-02-14T00:33:44.035Z,53.57
2017-02-14T00:34:15.292Z,53.68
2017-02-14T00:34:36.988Z,53.62
2017-02-14T00:35:40.076Z,53.76
2017-02-14T00:36:01.774Z,53.85
2017-02-14T00:36:23.590Z,54.01
2017-02-14T00:36:50.062Z,54.26
2017-02-14T00:37:11.768Z,53.99
2017-02-14T00:37:38.245Z,53.91
2017-02-14T00:38:00.041Z,54.06
2017-02-14T00:38:26.520Z,53.97
2017-02-14T00:38:48.223Z,53.85
2017-02-14T00:39:14.710Z,53.97
2017-02-14T00:39:36.418Z,53.97
2017-02-14T00:40:02.897Z,54.14
2017-02-14T00:40:24.700Z,54.39
2017-02-14T00:40:51.296Z,54.18
2017-02-14T00:41:13.001Z,54.17
2017-02-14T00:41:34.812Z,54.37
2017-02-14T00:41:56.615Z,54.41
2017-02-14T00:42:23.092Z,54.31
2017-02-14T00:42:44.835Z,54.38
2017-02-14T00:43:11.322Z,54.40
2017-02-14T00:43:33.120Z,54.43
2017-02-14T00:43:59.597Z,54.52
2017-02-14T00:44:21.299Z,54.64
2017-02-14T00:44:43.004Z,54.64
2017-02-14T00:45:04.818Z,54.66
2017-02-14T00:45:26.617Z,54.64
2017-02-14T00:45:53.101Z,54.50
2017-02-14T00:46:19.571Z,54.40
2017-02-14T00:46:41.277Z,54.49
2017-02-14T00:47:07.763Z,54.65
2017-02-14T00:47:29.479Z,54.42
2017-02-14T00:47:55.951Z,54.49
2017-02-14T00:48:17.658Z,54.53
2017-02-14T00:48:44.131Z,54.49
2017-02-14T00:49:05.830Z,54.61
2017-02-14T00:49:27.544Z,54.62
2017-02-14T00:49:49.247Z,54.58
2017-02-14T00:50:11.045Z,54.77
2017-02-14T00:50:37.526Z,54.84
2017-02-14T00:50:59.228Z,54.87
2017-02-14T00:51:20.928Z,54.89
2017-02-14T00:51:52.191Z,54.88
2017-02-14T00:52:13.886Z,54.78
2017-02-14T00:52:40.376Z,54.66
2017-02-14T00:53:02.092Z,54.64
2017-02-14T00:53:23.803Z,54.66
2017-02-14T00:53:50.277Z,54.72
2017-02-14T00:54:11.974Z,54.71
2017-02-14T00:54:33.680Z,54.79
2017-02-14T00:54:55.385Z,54.93
2017-02-14T00:55:17.090Z,54.74
2017-02-14T00:55:38.789Z,54.82
2017-02-14T00:56:00.503Z,54.79
2017-02-14T00:56:22.208Z,54.83
2017-02-14T00:56:43.917Z,54.95
2017-02-14T00:57:05.625Z,55.16
2017-02-14T00:57:27.330Z,55.12
2017-02-14T00:57:49.043Z,55.02
2017-02-14T00:58:10.786Z,54.99
2017-02-14T00:58:32.482Z,54.82
2017-02-14T00:58:54.195Z,54.81
2017-02-14T00:59:15.904Z,54.93
2017-02-14T00:59:37.616Z,55.26
2017-02-14T00:59:59.916Z,55.50
2017-02-14T01:00:24.258Z,55.74
2017-02-14T01:00:45.961Z,55.92
2017-02-14T01:01:07.758Z,55.89
2017-02-14T01:01:29.481Z,56.04
2017-02-14T01:01:51.187Z,55.86
2017-02-14T01:02:12.916Z,55.78
2017-02-14T01:02:39.398Z,55.96
2017-02-14T01:03:01.116Z,56.25
2017-02-14T01:03:27.587Z,56.32
2017-02-14T01:03:49.296Z,56.37
2017-02-14T01:04:20.553Z,56.39
2017-02-14T01:04:42.264Z,56.59
2017-02-14T01:05:03.971Z,56.71
2017-02-14T01:05:30.454Z,56.56
2017-02-14T01:05:52.248Z,56.56
2017-02-14T01:06:18.730Z,56.58
2017-02-14T01:06:40.437Z,56.58
2017-02-14T01:07:02.150Z,56.96
2017-02-14T01:07:28.630Z,57.11
2017-02-14T01:07:50.345Z,57.17
2017-02-14T01:08:12.044Z,57.26
2017-02-14T01:08:33.773Z,57.25
2017-02-14T01:08:55.471Z,57.05
2017-02-14T01:09:17.184Z,56.93
2017-02-14T01:09:43.667Z,56.69
2017-02-14T01:10:05.384Z,56.59
2017-02-14T01:10:27.196Z,56.36
2017-02-14T01:10:58.451Z,56.37
2017-02-14T01:11:20.166Z,56.34
2017-02-14T01:11:41.874Z,56.49
2017-02-14T01:12:03.673Z,56.47
2017-02-14T01:12:25.376Z,56.49
2017-02-14T01:12:47.079Z,56.58
2017-02-14T01:13:13.561Z,56.23
2017-02-14T01:13:35.283Z,56.20
2017-02-14T01:13:56.985Z,56.29
2017-02-14T01:14:23.462Z,56.40
2017-02-14T01:14:45.168Z,56.40
2017-02-14T01:15:06.870Z,56.44
2017-02-14T01:15:33.446Z,56.42
2017-02-14T01:15:55.152Z,56.45
2017-02-14T01:16:21.629Z,56.66
2017-02-14T01:16:43.361Z,56.38
2017-02-14T01:17:09.827Z,56.30
2017-02-14T01:17:31.647Z,56.31
2017-02-14T01:18:02.932Z,56.38
2017-02-14T01:18:24.632Z,56.18
2017-02-14T01:18:46.355Z,56.32
2017-02-14T01:19:08.067Z,56.41
2017-02-14T01:19:29.804Z,56.31
2017-02-14T01:19:51.509Z,56.19
2017-02-14T01:20:13.215Z,56.10
2017-02-14T01:20:34.924Z,56.09
2017-02-14T01:20:56.627Z,56.11
2017-02-14T01:21:27.882Z,56.28
2017-02-14T01:21:49.784Z,56.04
2017-02-14T01:22:11.494Z,56.24
2017-02-14T01:22:37.974Z,56.42
2017-02-14T01:22:59.682Z,56.26
2017-02-14T01:23:21.484Z,56.30
2017-02-14T01:23:43.192Z,56.23
2017-02-14T01:24:04.895Z,56.26
2017-02-14T01:24:36.146Z,56.24
2017-02-14T01:24:57.856Z,56.27
2017-02-14T01:25:19.564Z,56.25
2017-02-14T01:25:46.048Z,56.36
2017-02-14T01:26:07.764Z,56.37
2017-02-14T01:26:29.471Z,56.23
2017-02-14T01:26:51.174Z,56.34
2017-02-14T01:27:13.094Z,56.44
2017-02-14T01:27:39.587Z,56.64
2017-02-14T01:28:01.293Z,56.80
2017-02-14T01:28:27.782Z,56.91
2017-02-14T01:28:49.481Z,56.78
2017-02-14T01:29:15.961Z,56.89
2017-02-14T01:29:37.689Z,57.00
2017-02-14T01:30:04.207Z,57.30
2017-02-14T01:30:30.684Z,57.09
2017-02-14T01:30:52.493Z,56.96
2017-02-14T01:31:18.975Z,56.83
2017-02-14T01:31:40.679Z,56.79
2017-02-14T01:32:07.155Z,57.00
2017-02-14T01:32:28.873Z,56.99
2017-02-14T01:32:55.359Z,56.98
2017-02-14T01:33:17.071Z,56.87
2017-02-14T01:33:38.774Z,56.82
2017-02-14T01:34:00.487Z,56.76
2017-02-14T01:34:22.211Z,56.81
2017-02-14T01:35:29.503Z,56.89
2017-02-14T01:35:51.260Z,56.90
2017-02-14T01:36:12.956Z,56.80
2017-02-14T01:36:36.736Z,56.76
2017-02-14T01:36:58.393Z,56.83
2017-02-14T01:38:01.485Z,56.80
2017-02-14T01:38:23.184Z,56.93
2017-02-14T01:39:21.506Z,56.91
2017-02-14T01:39:43.223Z,56.83
2017-02-14T01:40:09.690Z,56.79
2017-02-14T01:40:31.392Z,56.84
2017-02-14T01:40:57.881Z,56.89
2017-02-14T01:41:19.592Z,57.10
2017-02-14T01:41:46.070Z,57.01
2017-02-14T01:42:07.776Z,56.93
2017-02-14T01:42:29.497Z,57.06
2017-02-14T01:42:55.981Z,57.05
2017-02-14T01:43:17.691Z,57.20
2017-02-14T01:43:44.181Z,57.38
2017-02-14T01:44:05.891Z,57.38
2017-02-14T01:44:27.590Z,57.60
2017-02-14T01:44:54.072Z,57.58
2017-02-14T01:45:15.791Z,57.69
2017-02-14T01:45:37.587Z,57.67
2017-02-14T01:46:08.841Z,57.43
2017-02-14T01:46:30.547Z,57.35
2017-02-14T01:46:52.254Z,57.31
2017-02-14T01:47:23.507Z,57.43
2017-02-14T01:47:45.216Z,57.61
2017-02-14T01:48:06.916Z,57.58
2017-02-14T01:48:33.402Z,57.83
2017-02-14T01:48:55.123Z,57.86
2017-02-14T01:49:21.597Z,57.77
2017-02-14T01:49:43.303Z,57.67
2017-02-14T01:50:09.778Z,57.58
2017-02-14T01:50:33.891Z,57.64
2017-02-14T01:51:00.424Z,57.62
2017-02-14T01:51:22.134Z,57.66
2017-02-14T01:51:48.704Z,57.58
2017-02-14T01:52:10.409Z,57.49
2017-02-14T01:52:36.883Z,57.31
2017-02-14T01:52:58.579Z,57.41
2017-02-14T01:53:25.056Z,57.51
2017-02-14T01:53:46.771Z,57.65
2017-02-14T01:54:08.483Z,57.75
2017-02-14T01:54:34.973Z,57.92
2017-02-14T01:54:56.701Z,57.70
2017-02-14T01:55:23.168Z,57.82
2017-02-14T01:55:44.870Z,57.78
2017-02-14T01:56:11.363Z,57.51
2017-02-14T01:56:33.070Z,57.35
2017-02-14T01:56:59.542Z,57.36
2017-02-14T01:57:21.365Z,57.43
2017-02-14T01:57:47.859Z,57.43
2017-02-14T01:58:09.559Z,57.46
2017-02-14T01:58:31.266Z,57.48
2017-02-14T01:58:52.975Z,57.44
2017-02-14T01:59:24.239Z,57.69
2017-02-14T02:00:49.085Z,57.25
2017-02-14T02:01:10.790Z,57.10
2017-02-14T02:01:32.499Z,57.20
2017-02-14T02:01:54.208Z,57.38
2017-02-14T02:02:15.920Z,57.33
2017-02-14T02:02:42.396Z,57.42
2017-02-14T02:03:35.366Z,57.26
2017-02-14T02:03:57.184Z,57.31
2017-02-14T02:04:55.456Z,57.67
2017-02-14T02:05:17.162Z,57.54
2017-02-14T02:05:38.877Z,57.59
2017-02-14T02:06:10.131Z,57.62
2017-02-14T02:06:31.836Z,57.58
2017-02-14T02:06:53.544Z,57.67
2017-02-14T02:07:15.254Z,57.79
2017-02-14T02:07:37.000Z,57.93
2017-02-14T02:07:58.710Z,57.91
2017-02-14T02:08:20.419Z,58.07
2017-02-14T02:08:42.133Z,58.11
2017-02-14T02:09:13.500Z,57.96
2017-02-14T02:09:35.196Z,57.91
2017-02-14T02:09:56.912Z,58.06
2017-02-14T02:10:28.169Z,58.34
2017-02-14T02:10:49.888Z,58.43
2017-02-14T02:11:11.808Z,58.47
2017-02-14T02:11:38.287Z,58.55
2017-02-14T02:11:59.994Z,58.48
2017-02-14T02:12:21.705Z,58.36
2017-02-14T02:12:48.189Z,58.39
2017-02-14T02:13:09.890Z,58.44
2017-02-14T02:13:31.602Z,58.27
2017-02-14T02:13:58.185Z,58.34
2017-02-14T02:14:19.900Z,58.14
2017-02-14T02:14:41.609Z,58.00
2017-02-14T02:15:12.864Z,58.12
2017-02-14T02:15:34.566Z,58.12
2017-02-14T02:15:56.268Z,58.26
2017-02-14T02:16:17.980Z,58.53
2017-02-14T02:16:39.679Z,58.81
2017-02-14T02:17:01.386Z,58.82
2017-02-14T02:17:27.865Z,58.78
2017-02-14T02:17:49.596Z,58.77
2017-02-14T02:18:11.293Z,58.68
2017-02-14T02:18:42.550Z,58.28
2017-02-14T02:19:04.250Z,58.34
2017-02-14T02:19:25.978Z,58.49
2017-02-14T02:19:57.244Z,58.36
2017-02-14T02:20:18.937Z,58.48
2017-02-14T02:20:45.409Z,58.69
2017-02-14T02:21:07.117Z,58.75
2017-02-14T02:21:28.823Z,58.86
2017-02-14T02:21:50.539Z,58.89
2017-02-14T02:22:12.262Z,58.98
2017-02-14T02:22:43.529Z,58.94
2017-02-14T02:23:05.292Z,59.03
2017-02-14T02:23:27.020Z,59.15
2017-02-14T02:23:53.501Z,59.25
2017-02-14T02:24:15.228Z,59.32
2017-02-14T02:24:36.949Z,59.26
2017-02-14T02:25:39.452Z,59.16
2017-02-14T02:26:01.167Z,59.06
2017-02-14T02:26:22.866Z,59.06
2017-02-14T02:27:25.941Z,59.32
2017-02-14T02:27:47.651Z,59.29
2017-02-14T02:28:14.141Z,59.30
2017-02-14T02:28:35.852Z,59.14
2017-02-14T02:28:57.571Z,59.14
2017-02-14T02:29:19.293Z,59.22
2017-02-14T02:29:41.004Z,59.17
2017-02-14T02:30:02.733Z,59.14
2017-02-14T02:30:33.991Z,59.11
2017-02-14T02:30:55.814Z,59.23
2017-02-14T02:31:17.524Z,59.16
2017-02-14T02:31:39.245Z,59.09
2017-02-14T02:32:00.947Z,59.12
2017-02-14T02:32:22.653Z,58.78
2017-02-14T02:32:44.362Z,58.73
2017-02-14T02:33:06.071Z,58.66
2017-02-14T02:33:27.778Z,58.77
2017-02-14T02:33:49.494Z,58.80
2017-02-14T02:34:11.196Z,58.65
2017-02-14T02:34:32.905Z,58.66
2017-02-14T02:35:04.183Z,58.84
2017-02-14T02:35:25.898Z,58.70
2017-02-14T02:35:47.606Z,58.84
2017-02-14T02:36:09.408Z,59.05
2017-02-14T02:36:33.727Z,59.05
2017-02-14T02:37:00.213Z,59.05
2017-02-14T02:37:21.916Z,59.11
2017-02-14T02:38:29.196Z,59.40
2017-02-14T02:38:50.902Z,59.59
2017-02-14T02:39:17.403Z,59.50
2017-02-14T02:39:39.117Z,59.54
2017-02-14T02:40:46.403Z,59.83
2017-02-14T02:41:08.111Z,60.13
2017-02-14T02:41:34.592Z,60.27
2017-02-14T02:41:56.297Z,60.10
2017-02-14T02:42:18.003Z,60.12
2017-02-14T02:42:44.492Z,60.26
2017-02-14T02:43:06.210Z,60.44
2017-02-14T02:43:28.103Z,60.61
2017-02-14T02:44:30.614Z,60.48
2017-02-14T02:44:57.094Z,60.46
2017-02-14T02:45:18.829Z,60.45
2017-02-14T02:45:50.089Z,60.33
2017-02-14T02:46:11.801Z,60.14
2017-02-14T02:46:43.050Z,60.34
2017-02-14T02:47:04.744Z,60.89
2017-02-14T02:47:31.229Z,60.81
2017-02-14T02:47:52.938Z,61.06
2017-02-14T02:48:24.185Z,61.30
2017-02-14T02:48:45.885Z,61.33
2017-02-14T02:49:07.593Z,61.30
2017-02-14T02:49:29.299Z,61.25
2017-02-14T02:49:51.005Z,61.14
2017-02-14T02:50:17.501Z,60.97
2017-02-14T02:50:39.203Z,60.93
2017-02-14T02:51:00.903Z,60.77
2017-02-14T02:52:03.968Z,61.05
2017-02-14T02:52:25.677Z,60.84
2017-02-14T02:52:47.386Z,60.83
2017-02-14T02:53:09.094Z,60.75
2017-02-14T02:53:30.791Z,60.49
2017-02-14T02:54:33.910Z,60.03
2017-02-14T02:54:55.654Z,60.04
2017-02-14T02:55:17.335Z,60.16
2017-02-14T02:55:39.041Z,60.20
2017-02-14T02:56:00.759Z,60.33
2017-02-14T02:56:22.498Z,60.49
2017-02-14T02:56:44.215Z,60.71
2017-02-14T02:57:05.924Z,60.78
2017-02-14T02:57:27.634Z,60.72
2017-02-14T02:57:54.112Z,60.54
2017-02-14T02:58:15.874Z,60.55
2017-02-14T02:58:37.596Z,60.53
2017-02-14T02:58:59.311Z,60.52
2017-02-14T02:59:21.014Z,60.54
2017-02-14T02:59:42.723Z,60.57
2017-02-14T03:00:04.445Z,60.54
2017-02-14T03:00:26.157Z,60.54
2017-02-14T03:00:52.631Z,60.51
2017-02-14T03:01:14.342Z,60.45
2017-02-14T03:01:36.067Z,60.47
2017-02-14T03:01:57.981Z,60.53
2017-02-14T03:02:19.686Z,60.68
2017-02-14T03:02:50.943Z,60.70
2017-02-14T03:03:12.646Z,60.74
2017-02-14T03:03:34.354Z,60.58
2017-02-14T03:03:56.070Z,60.61
2017-02-14T03:04:17.776Z,60.56
2017-02-14T03:04:44.249Z,60.48
2017-02-14T03:05:05.958Z,60.44
2017-02-14T03:05:27.673Z,60.64
2017-02-14T03:05:54.151Z,60.57
2017-02-14T03:06:15.868Z,60.59
2017-02-14T03:06:37.609Z,60.59
2017-02-14T03:07:04.083Z,60.50
2017-02-14T03:07:25.786Z,60.49
2017-02-14T03:07:47.493Z,60.37
2017-02-14T03:08:18.749Z,60.60
2017-02-14T03:08:40.455Z,60.88
2017-02-14T03:09:02.159Z,60.71
2017-02-14T03:09:23.868Z,60.98
2017-02-14T03:09:45.571Z,60.95
2017-02-14T03:10:12.073Z,60.97
2017-02-14T03:10:33.788Z,60.97
2017-02-14T03:11:00.276Z,60.91
2017-02-14T03:11:21.981Z,60.92
2017-02-14T03:11:43.718Z,60.98
2017-02-14T03:12:05.430Z,60.90
2017-02-14T03:12:27.154Z,60.90
2017-02-14T03:12:53.636Z,60.98
2017-02-14T03:13:15.347Z,60.85
2017-02-14T03:13:37.049Z,60.71
2017-02-14T03:14:03.558Z,60.46
2017-02-14T03:14:25.265Z,60.43
2017-02-14T03:14:46.969Z,60.29
2017-02-14T03:15:08.681Z,60.35
2017-02-14T03:15:30.384Z,60.48
2017-02-14T03:16:01.639Z,60.53
2017-02-14T03:16:23.339Z,60.76
2017-02-14T03:16:45.067Z,60.89
2017-02-14T03:17:11.542Z,60.86
2017-02-14T03:17:33.244Z,60.87
2017-02-14T03:17:59.738Z,60.88
2017-02-14T03:18:21.451Z,60.98
2017-02-14T03:18:52.719Z,60.82
2017-02-14T03:19:14.431Z,60.60
2017-02-14T03:19:45.695Z,60.32
2017-02-14T03:20:07.400Z,60.23
2017-02-14T03:20:38.663Z,60.33
2017-02-14T03:21:00.351Z,60.52
2017-02-14T03:21:31.606Z,60.49
2017-02-14T03:21:53.356Z,60.29
2017-02-14T03:22:56.444Z,60.68
2017-02-14T03:23:18.159Z,60.48
2017-02-14T03:23:39.867Z,60.17
2017-02-14T03:24:06.358Z,60.17
2017-02-14T03:24:28.060Z,60.06
2017-02-14T03:24:49.768Z,59.95
2017-02-14T03:25:11.490Z,59.64
2017-02-14T03:25:33.190Z,59.66
2017-02-14T03:25:59.666Z,59.78
2017-02-14T03:26:21.384Z,59.90
2017-02-14T03:26:47.871Z,59.87
2017-02-14T03:27:09.609Z,59.82
2017-02-14T03:27:31.329Z,59.56
2017-02-14T03:28:02.607Z,59.54
2017-02-14T03:28:24.325Z,59.61
2017-02-14T03:28:46.041Z,59.55
2017-02-14T03:29:12.514Z,59.50
2017-02-14T03:29:34.219Z,59.58
2017-02-14T03:29:55.929Z,59.54
2017-02-14T03:30:27.183Z,59.44
2017-02-14T03:30:48.882Z,59.52
2017-02-14T03:31:20.133Z,59.62
2017-02-14T03:31:41.836Z,59.56
2017-02-14T03:32:08.360Z,59.44
2017-02-14T03:32:30.072Z,59.25
2017-02-14T03:33:01.327Z,59.05
2017-02-14T03:33:23.031Z,59.19
2017-02-14T03:34:26.105Z,59.43
2017-02-14T03:34:47.823Z,59.36
2017-02-14T03:35:46.143Z,59.59
2017-02-14T03:36:07.852Z,59.60
2017-02-14T03:36:34.341Z,59.58
2017-02-14T03:36:56.080Z,59.32
2017-02-14T03:37:22.560Z,59.37
2017-02-14T03:37:44.278Z,59.32
2017-02-14T03:38:05.977Z,59.45
2017-02-14T03:38:32.456Z,59.36
2017-02-14T03:38:54.156Z,59.30
2017-02-14T03:39:15.865Z,59.34
2017-02-14T03:39:42.344Z,59.42
2017-02-14T03:40:04.056Z,59.42
2017-02-14T03:40:25.765Z,59.47
2017-02-14T03:40:47.475Z,59.56
2017-02-14T03:41:09.170Z,59.63
2017-02-14T03:41:30.885Z,59.63
2017-02-14T03:42:38.182Z,59.50
2017-02-14T03:42:59.884Z,59.50
2017-02-14T03:43:21.605Z,59.51
2017-02-14T03:43:43.317Z,59.56
2017-02-14T03:44:05.029Z,59.52
2017-02-14T03:44:26.744Z,59.40
2017-02-14T03:44:48.463Z,59.52
2017-02-14T03:45:10.263Z,59.57
2017-02-14T03:45:36.745Z,59.60
2017-02-14T03:45:58.451Z,59.66
2017-02-14T03:47:01.548Z,59.47
2017-02-14T03:47:23.253Z,59.46
2017-02-14T03:47:44.958Z,59.39
2017-02-14T03:48:11.445Z,59.51
2017-02-14T03:48:33.148Z,59.58
2017-02-14T03:48:54.859Z,59.69
2017-02-14T03:49:21.349Z,59.77
2017-02-14T03:49:43.070Z,59.75
2017-02-14T03:50:09.549Z,59.79
2017-02-14T03:50:31.266Z,59.67
2017-02-14T03:50:57.739Z,59.50
2017-02-14T03:51:19.445Z,59.44
2017-02-14T03:51:41.147Z,59.27
2017-02-14T03:52:02.873Z,59.42
2017-02-14T03:52:24.587Z,59.28
2017-02-14T03:52:46.299Z,59.09
2017-02-14T03:53:44.616Z,59.28
2017-02-14T03:54:06.322Z,59.27
2017-02-14T03:54:28.044Z,59.28
2017-02-14T03:54:54.528Z,59.51
2017-02-14T03:55:16.232Z,59.56
2017-02-14T03:55:37.942Z,59.66
2017-02-14T03:55:59.662Z,59.66
2017-02-14T03:56:21.388Z,59.64
2017-02-14T03:56:52.649Z,59.67
2017-02-14T03:57:14.381Z,59.80
2017-02-14T03:57:45.647Z,59.71
2017-02-14T03:58:09.970Z,59.75
2017-02-14T03:58:31.672Z,59.79
2017-02-14T03:58:53.378Z,59.85
2017-02-14T03:59:15.081Z,59.76
2017-02-14T03:59:41.554Z,59.66
2017-02-14T04:00:03.256Z,59.64
2017-02-14T04:00:24.966Z,59.73
2017-02-14T04:00:46.678Z,59.76
2017-02-14T04:01:08.382Z,59.81
2017-02-14T04:01:34.859Z,59.56
2017-02-14T04:01:56.568Z,59.57
2017-02-14T04:02:18.288Z,59.66
2017-02-14T04:03:25.561Z,59.63
2017-02-14T04:03:47.260Z,59.72
2017-02-14T04:04:13.740Z,59.90
2017-02-14T04:04:35.446Z,60.04
2017-02-14T04:05:01.914Z,59.89
2017-02-14T04:05:23.618Z,59.80
2017-02-14T04:05:45.321Z,59.88
2017-02-14T04:06:11.810Z,59.77
2017-02-14T04:06:33.509Z,59.84
2017-02-14T04:07:31.819Z,59.93
2017-02-14T04:07:53.535Z,60.27
2017-02-14T04:08:20.019Z,60.17
2017-02-14T04:08:41.708Z,60.16
2017-02-14T04:09:08.284Z,60.19
2017-02-14T04:09:29.990Z,60.20
2017-02-14T04:09:56.476Z,60.34
2017-02-14T04:10:18.174Z,60.53
2017-02-14T04:10:44.659Z,60.42
2017-02-14T04:11:06.380Z,60.39
2017-02-14T04:11:28.084Z,60.32
2017-02-14T04:11:49.787Z,60.30
2017-02-14T04:12:11.498Z,60.34
2017-02-14T04:12:33.196Z,60.55
2017-02-14T04:12:54.933Z,60.38
2017-02-14T04:13:16.646Z,60.29
2017-02-14T04:13:38.349Z,60.13
2017-02-14T04:14:04.817Z,60.17
2017-02-14T04:14:26.521Z,60.24
2017-02-14T04:14:48.223Z,60.31
2017-02-14T04:15:09.980Z,60.29
2017-02-14T04:15:31.682Z,60.49
2017-02-14T04:16:34.202Z,60.46
2017-02-14T04:17:00.681Z,60.52
2017-02-14T04:17:22.387Z,60.60
2017-02-14T04:17:48.985Z,60.60
2017-02-14T04:18:10.684Z,60.51
2017-02-14T04:18:32.434Z,60.45
2017-02-14T04:18:54.146Z,60.53
2017-02-14T04:19:15.958Z,60.35
2017-02-14T04:19:47.210Z,60.41
2017-02-14T04:20:08.915Z,60.55
2017-02-14T04:21:16.226Z,60.77
2017-02-14T04:21:37.939Z,60.69
2017-02-14T04:22:04.408Z,60.55
2017-02-14T04:22:30.889Z,60.40
2017-02-14T04:22:52.595Z,60.39
2017-02-14T04:23:14.313Z,60.39
2017-02-14T04:23:40.799Z,60.56
2017-02-14T04:24:07.276Z,60.65
2017-02-14T04:24:28.997Z,60.66
2017-02-14T04:24:53.667Z,60.68
2017-02-14T04:25:18.035Z,61.03
2017-02-14T04:25:44.527Z,61.04
2017-02-14T04:26:06.243Z,60.96
2017-02-14T04:26:27.948Z,60.97
2017-02-14T04:26:49.663Z,60.92
2017-02-14T04:27:11.368Z,61.02
2017-02-14T04:27:42.630Z,61.00
2017-02-14T04:28:04.338Z,60.94
2017-02-14T04:29:16.486Z,61.12
2017-02-14T04:29:38.193Z,61.19
2017-02-14T04:30:09.455Z,61.08
2017-02-14T04:30:31.177Z,61.04
2017-02-14T04:30:52.883Z,61.11
2017-02-14T04:31:14.597Z,61.01
2017-02-14T04:31:36.297Z,60.83
2017-02-14T04:31:58.000Z,60.92
2017-02-14T04:32:29.254Z,61.07
2017-02-14T04:32:50.953Z,61.18
2017-02-14T04:33:12.649Z,61.07
2017-02-14T04:33:34.358Z,60.97
2017-02-14T04:33:56.057Z,60.95
2017-02-14T04:34:17.766Z,60.88
2017-02-14T04:34:39.480Z,60.90
2017-02-14T04:35:01.184Z,60.93
2017-02-14T04:35:22.899Z,61.17
2017-02-14T04:35:44.608Z,61.18
2017-02-14T04:36:06.342Z,60.92
2017-02-14T04:36:28.073Z,60.96
2017-02-14T04:36:59.330Z,60.78
2017-02-14T04:37:21.041Z,60.76
2017-02-14T04:38:24.123Z,60.47
2017-02-14T04:38:45.842Z,60.30
2017-02-14T04:39:12.332Z,60.39
2017-02-14T04:39:34.037Z,60.43
2017-02-14T04:39:55.749Z,60.49
2017-02-14T04:40:17.468Z,60.39
2017-02-14T04:40:39.193Z,60.39
2017-02-14T04:41:05.670Z,60.13
2017-02-14T04:41:27.482Z,59.99
2017-02-14T04:41:53.852Z,60.08
2017-02-14T04:42:15.567Z,60.05
2017-02-14T04:42:42.047Z,60.21
2017-02-14T04:43:03.759Z,60.31
2017-02-14T04:43:25.873Z,60.32
2017-02-14T04:43:47.580Z,60.36
2017-02-14T04:44:09.299Z,60.34
2017-02-14T04:44:30.997Z,60.28
2017-02-14T04:44:52.697Z,60.36
2017-02-14T04:45:19.194Z,60.59
2017-02-14T04:45:40.999Z,60.71
2017-02-14T04:46:07.478Z,60.96
2017-02-14T04:46:29.216Z,61.04
2017-02-14T04:46:50.928Z,61.24
2017-02-14T04:47:17.411Z,61.35
2017-02-14T04:47:39.150Z,61.31
2017-02-14T04:48:00.826Z,61.16
2017-02-14T04:48:27.305Z,61.16
2017-02-14T04:48:49.004Z,61.11
2017-02-14T04:49:10.799Z,61.30
2017-02-14T04:49:32.508Z,61.22
2017-02-14T04:49:54.221Z,60.88
2017-02-14T04:50:25.478Z,60.76
2017-02-14T04:50:47.184Z,60.67
2017-02-14T04:51:54.666Z,60.73
2017-02-14T04:52:19.171Z,61.03
2017-02-14T04:52:45.667Z,61.09
2017-02-14T04:53:07.368Z,61.31
2017-02-14T04:53:33.862Z,61.37
2017-02-14T04:53:55.571Z,61.44
2017-02-14T04:54:17.287Z,61.51
2017-02-14T04:54:39.014Z,61.57
2017-02-14T04:55:00.774Z,61.59
2017-02-14T04:55:22.496Z,61.58
2017-02-14T04:55:44.199Z,61.82
2017-02-14T04:56:05.907Z,61.84
2017-02-14T04:56:27.626Z,61.81
2017-02-14T04:57:34.909Z,61.93
2017-02-14T04:57:56.655Z,61.91
2017-02-14T04:58:23.132Z,62.10
2017-02-14T04:58:44.841Z,62.16
2017-02-14T04:59:06.567Z,62.14
2017-02-14T04:59:33.065Z,62.30
2017-02-14T04:59:54.780Z,62.48
2017-02-14T05:00:26.032Z,62.34
2017-02-14T05:00:47.734Z,62.34
2017-02-14T05:01:09.440Z,62.27
2017-02-14T05:01:35.914Z,62.24
2017-02-14T05:01:57.664Z,62.22
2017-02-14T05:02:55.990Z,62.31
2017-02-14T05:03:17.725Z,62.35
2017-02-14T05:03:48.986Z,62.31
2017-02-14T05:04:10.725Z,62.32
2017-02-14T05:04:32.438Z,62.35
2017-02-14T05:05:03.786Z,62.29
2017-02-14T05:05:25.491Z,62.35
2017-02-14T05:05:51.981Z,62.31
2017-02-14T05:06:13.748Z,62.48
2017-02-14T05:06:35.449Z,62.47
2017-02-14T05:06:57.205Z,62.41
2017-02-14T05:07:18.903Z,62.50
2017-02-14T05:07:50.163Z,62.55
2017-02-14T05:08:11.871Z,62.74
2017-02-14T05:08:33.587Z,63.12
2017-02-14T05:09:00.077Z,63.35
2017-02-14T05:09:21.800Z,62.89
2017-02-14T05:09:53.052Z,62.41
2017-02-14T05:10:14.761Z,62.37
2017-02-14T05:10:46.022Z,62.40
2017-02-14T05:11:17.271Z,62.56
2017-02-14T05:11:38.995Z,62.37
2017-02-14T05:12:05.481Z,62.49
2017-02-14T05:12:27.181Z,62.55
2017-02-14T05:12:58.446Z,62.36
2017-02-14T05:13:20.147Z,62.26
2017-02-14T05:14:23.213Z,62.27
2017-02-14T05:14:44.927Z,62.53
2017-02-14T05:15:48.013Z,62.46
2017-02-14T05:16:09.716Z,62.85
2017-02-14T05:16:40.976Z,62.87
2017-02-14T05:17:02.685Z,63.00
2017-02-14T05:17:24.399Z,63.23
2017-02-14T05:17:50.870Z,63.17
2017-02-14T05:18:12.577Z,63.18
2017-02-14T05:18:34.282Z,63.18
2017-02-14T05:19:00.759Z,63.13
2017-02-14T05:19:22.463Z,63.22
2017-02-14T05:19:44.179Z,63.37
2017-02-14T05:20:05.885Z,63.41
2017-02-14T05:20:27.591Z,63.32
2017-02-14T05:20:54.070Z,63.40
2017-02-14T05:21:15.764Z,63.53
2017-02-14T05:21:42.250Z,63.44
2017-02-14T05:22:04.144Z,63.20
2017-02-14T05:22:25.852Z,63.18
2017-02-14T05:22:47.563Z,63.21
2017-02-14T05:23:09.261Z,63.23
2017-02-14T05:24:11.773Z,63.45
2017-02-14T05:24:33.490Z,63.58
2017-02-14T05:24:55.197Z,63.60
2017-02-14T05:25:16.902Z,63.67
2017-02-14T05:25:38.703Z,63.64